createdAt,value
2023-04-12T00:01:26.944Z,2.10
2023-04-12T00:04:16.706Z,1.95
2023-04-12T00:07:06.160Z,2.00
2023-04-12T00:09:53.945Z,2.10
2023-04-12T00:12:42.324Z,1.70
2023-04-12T00:15:29.922Z,1.98
2023-04-12T00:18:17.552Z,1.80
2023-04-12T00:21:05.750Z,1.80
2023-04-12T00:23:53.432Z,1.90
2023-04-12T00:26:40.998Z,1.92
2023-04-12T00:29:30.189Z,1.77
2023-04-12T00:32:17.243Z,1.90
2023-04-12T00:35:04.983Z,1.73
2023-04-12T00:37:52.334Z,1.90
2023-04-12T00:40:42.741Z,2.10
2023-04-12T00:43:30.026Z,1.80
2023-04-12T00:46:20.570Z,1.83
2023-04-12T00:49:07.733Z,2.00
2023-04-12T00:51:55.416Z,1.80
2023-04-12T00:54:44.363Z,1.73
2023-04-12T00:57:36.637Z,1.60
2023-04-12T01:00:24.409Z,1.90
2023-04-12T01:03:13.920Z,1.60
2023-04-12T01:06:10.633Z,1.73
2023-04-12T01:09:04.820Z,1.83
2023-04-12T01:12:04.840Z,1.63
2023-04-12T01:15:03.359Z,1.88
2023-04-12T01:17:58.357Z,1.90
2023-04-12T01:20:54.765Z,1.73
2023-04-12T01:23:59.846Z,1.90
2023-04-12T01:26:50.195Z,1.70
2023-04-12T01:29:39.984Z,1.83
2023-04-12T01:32:28.150Z,1.95
2023-04-12T01:35:17.501Z,2.00
2023-04-12T01:38:06.769Z,1.80
2023-04-12T01:40:55.117Z,1.75
2023-04-12T01:43:42.990Z,1.92
2023-04-12T01:46:32.606Z,1.85
2023-04-12T01:49:21.682Z,1.90
2023-04-12T01:52:13.627Z,1.80
2023-04-12T01:55:06.096Z,1.80
2023-04-12T01:57:54.537Z,1.80
2023-04-12T02:00:43.041Z,1.80
2023-04-12T02:03:32.201Z,1.70
2023-04-12T02:06:21.149Z,1.73
2023-04-12T02:09:08.436Z,1.70
2023-04-12T02:11:56.631Z,1.73
2023-04-12T02:14:43.910Z,1.70
2023-04-12T02:17:31.384Z,1.60
2023-04-12T02:20:20.196Z,1.80
2023-04-12T02:23:07.300Z,1.77
2023-04-12T02:25:54.558Z,1.67
2023-04-12T02:28:41.456Z,1.50
2023-04-12T02:31:31.840Z,1.65
2023-04-12T02:34:19.487Z,1.93
2023-04-12T02:37:17.742Z,1.60
2023-04-12T02:40:06.934Z,1.60
2023-04-12T02:42:54.510Z,1.77
2023-04-12T02:45:43.520Z,1.65
2023-04-12T02:48:31.265Z,1.58
2023-04-12T02:51:19.079Z,1.80
2023-04-12T02:54:10.808Z,1.70
2023-04-12T02:57:11.659Z,1.80
2023-04-12T03:00:08.011Z,1.75
2023-04-12T03:03:04.707Z,1.95
2023-04-12T03:05:53.792Z,1.90
2023-04-12T03:08:41.120Z,1.90
2023-04-12T03:11:29.808Z,1.73
2023-04-12T03:14:18.430Z,2.13
2023-04-12T03:17:05.984Z,1.88
2023-04-12T03:19:55.623Z,1.98
2023-04-12T03:22:43.778Z,1.65
2023-04-12T03:25:30.693Z,1.70
2023-04-12T03:28:27.696Z,1.90
2023-04-12T03:31:15.572Z,1.80
2023-04-12T03:34:05.053Z,1.90
2023-04-12T03:36:52.175Z,1.80
2023-04-12T03:39:55.644Z,1.83
2023-04-12T03:42:45.174Z,1.80
2023-04-12T03:45:36.588Z,1.70
2023-04-12T03:48:24.611Z,1.85
2023-04-12T03:51:12.319Z,1.80
2023-04-12T03:54:04.645Z,1.90
2023-04-12T03:57:04.354Z,1.63
2023-04-12T03:59:58.418Z,1.80
2023-04-12T04:02:54.553Z,1.60
2023-04-12T04:05:42.744Z,1.63
2023-04-12T04:08:32.641Z,1.43
2023-04-12T04:11:19.846Z,1.58
2023-04-12T04:14:11.388Z,1.60
2023-04-12T04:16:58.804Z,1.58
2023-04-12T04:19:47.674Z,1.50
2023-04-12T04:22:34.903Z,1.63
2023-04-12T04:25:29.872Z,1.80
2023-04-12T04:28:20.509Z,1.70
2023-04-12T04:31:10.494Z,1.67
2023-04-12T04:34:01.605Z,1.60
2023-04-12T04:36:53.012Z,1.60
2023-04-12T04:39:46.700Z,1.50
2023-04-12T04:42:34.935Z,1.50
2023-04-12T04:45:26.690Z,1.50
2023-04-12T04:48:13.583Z,1.40
2023-04-12T04:51:02.765Z,1.30
2023-04-12T04:53:51.269Z,1.42
2023-04-12T04:56:38.650Z,1.30
2023-04-12T04:59:25.761Z,1.50
2023-04-12T05:02:18.210Z,1.58
2023-04-12T05:05:06.748Z,1.40
2023-04-12T05:07:53.867Z,1.30
2023-04-12T05:10:44.262Z,1.27
2023-04-12T05:13:32.204Z,1.50
2023-04-12T05:16:19.994Z,1.52
2023-04-12T05:19:07.383Z,1.50
2023-04-12T05:21:54.993Z,1.35
2023-04-12T05:24:41.985Z,1.55
2023-04-12T05:27:31.274Z,1.50
2023-04-12T05:30:20.040Z,1.60
2023-04-12T05:33:07.621Z,1.50
2023-04-12T05:35:57.841Z,1.50
2023-04-12T05:38:44.685Z,1.70
2023-04-12T05:41:33.333Z,1.63
2023-04-12T05:44:22.393Z,1.70
2023-04-12T05:47:10.137Z,1.98
2023-04-12T05:49:57.459Z,1.77
2023-04-12T05:52:44.887Z,1.80
2023-04-12T05:55:32.401Z,1.60
2023-04-12T05:58:20.688Z,1.80
2023-04-12T06:01:11.882Z,1.77
2023-04-12T06:03:59.835Z,1.75
2023-04-12T06:06:47.570Z,1.80
2023-04-12T06:09:35.270Z,1.80
2023-04-12T06:12:22.434Z,2.08
2023-04-12T06:15:10.132Z,2.20
2023-04-12T06:18:00.637Z,2.05
2023-04-12T06:20:47.852Z,2.10
2023-04-12T06:23:35.280Z,2.17
2023-04-12T06:26:22.735Z,2.13
2023-04-12T06:29:09.677Z,2.28
2023-04-12T06:31:57.041Z,2.00
2023-04-12T06:34:45.802Z,2.20
2023-04-12T06:37:35.171Z,2.47
2023-04-12T06:40:25.015Z,2.53
2023-04-12T06:43:13.461Z,2.83
2023-04-12T06:46:04.214Z,3.17
2023-04-12T06:48:51.880Z,3.03
2023-04-12T06:51:41.111Z,2.95
2023-04-12T06:54:28.645Z,3.30
2023-04-12T06:57:16.173Z,3.17
2023-04-12T07:00:04.201Z,3.10
2023-04-12T07:02:52.039Z,2.97
2023-04-12T07:05:40.316Z,3.22
2023-04-12T07:08:30.190Z,3.20
2023-04-12T07:11:20.914Z,3.40
2023-04-12T07:14:09.172Z,2.92
2023-04-12T07:16:57.298Z,3.10
2023-04-12T07:19:44.590Z,2.90
2023-04-12T07:22:32.354Z,3.30
2023-04-12T07:25:21.395Z,3.08
2023-04-12T07:28:09.438Z,3.10
2023-04-12T07:30:57.173Z,2.95
2023-04-12T07:33:44.207Z,3.10
2023-04-12T07:36:31.442Z,2.65
2023-04-12T07:39:18.990Z,2.80
2023-04-12T07:42:07.926Z,2.40
2023-04-12T07:44:55.735Z,2.63
2023-04-12T07:47:43.411Z,2.55
2023-04-12T07:50:31.211Z,2.58
2023-04-12T07:53:23.681Z,3.05
2023-04-12T07:56:11.482Z,2.58
2023-04-12T07:59:01.043Z,3.10
2023-04-12T08:01:48.535Z,2.90
2023-04-12T08:04:36.445Z,2.80
2023-04-12T08:07:24.172Z,2.40
2023-04-12T08:10:11.689Z,2.72
2023-04-12T08:12:59.657Z,2.70
2023-04-12T08:15:49.134Z,2.70
2023-04-12T08:18:37.176Z,2.75
2023-04-12T08:21:24.978Z,2.83
2023-04-12T08:24:13.132Z,2.70
2023-04-12T08:27:01.800Z,2.75
2023-04-12T08:29:49.378Z,2.75
2023-04-12T08:32:38.318Z,2.90
2023-04-12T08:35:26.121Z,2.80
2023-04-12T08:38:13.943Z,2.70
2023-04-12T08:41:03.747Z,3.10
2023-04-12T08:43:51.883Z,2.90
2023-04-12T08:46:39.522Z,2.92
2023-04-12T08:49:27.871Z,2.90
2023-04-12T08:52:15.704Z,3.13
2023-04-12T08:55:04.664Z,3.10
2023-04-12T08:57:56.467Z,3.30
2023-04-12T09:00:46.036Z,3.50
2023-04-12T09:03:34.737Z,3.97
2023-04-12T09:06:23.686Z,3.42
2023-04-12T09:09:10.907Z,4.03
2023-04-12T09:12:08.459Z,4.18
2023-04-12T09:15:12.984Z,3.80
2023-04-12T09:18:09.411Z,3.72
2023-04-12T09:21:11.981Z,4.10
2023-04-12T09:24:13.969Z,3.63
2023-04-12T09:27:07.033Z,4.13
2023-04-12T09:30:09.104Z,3.60
2023-04-12T09:32:57.021Z,4.20
2023-04-12T09:35:44.582Z,4.30
2023-04-12T09:38:32.864Z,4.03
2023-04-12T09:41:26.962Z,4.13
2023-04-12T09:44:30.590Z,4.20
2023-04-12T09:47:17.840Z,4.07
2023-04-12T09:50:08.044Z,4.35
2023-04-12T09:52:57.197Z,4.43
2023-04-12T09:55:45.536Z,4.05
2023-04-12T09:58:37.768Z,3.50
2023-04-12T10:01:26.316Z,3.58
2023-04-12T10:04:16.393Z,3.87
2023-04-12T10:07:05.503Z,3.60
2023-04-12T10:09:53.432Z,3.53
2023-04-12T10:12:42.277Z,3.55
2023-04-12T10:15:34.132Z,3.13
2023-04-12T10:18:27.280Z,3.50
2023-04-12T10:21:15.521Z,3.15
2023-04-12T10:24:03.561Z,3.45
2023-04-12T10:26:51.502Z,3.75
2023-04-12T10:29:40.078Z,3.53
2023-04-12T10:32:29.549Z,3.40
2023-04-12T10:35:20.540Z,3.58
2023-04-12T10:38:08.278Z,3.88
2023-04-12T10:41:15.804Z,3.88
2023-04-12T10:44:27.187Z,3.58
2023-04-12T10:47:15.112Z,3.20
2023-04-12T10:50:24.708Z,3.42
2023-04-12T10:53:28.059Z,3.78
2023-04-12T10:56:38.814Z,3.60
2023-04-12T10:59:34.385Z,3.53
2023-04-12T11:02:29.108Z,3.20
2023-04-12T11:05:20.007Z,3.38
2023-04-12T11:08:16.010Z,3.88
2023-04-12T11:11:20.946Z,3.88
2023-04-12T11:14:11.727Z,3.90
2023-04-12T11:17:27.633Z,4.20
2023-04-12T11:20:15.229Z,3.90
2023-04-12T11:23:02.575Z,3.72
2023-04-12T11:25:54.369Z,3.35
2023-04-12T11:28:42.098Z,3.67
2023-04-12T11:31:30.097Z,3.75
2023-04-12T11:34:18.940Z,3.42
2023-04-12T11:37:08.760Z,3.22
2023-04-12T11:39:59.546Z,3.60
2023-04-12T11:42:48.674Z,3.85
2023-04-12T11:45:37.166Z,3.75
2023-04-12T11:48:25.265Z,3.17
2023-04-12T11:51:25.036Z,3.65
2023-04-12T11:54:13.008Z,3.85
2023-04-12T11:57:01.531Z,3.25
2023-04-12T11:59:52.378Z,3.10
2023-04-12T12:02:49.362Z,3.05
2023-04-12T12:05:49.148Z,3.10
2023-04-12T12:08:43.261Z,2.90
2023-04-12T12:11:33.085Z,2.67
2023-04-12T12:14:21.207Z,3.03
2023-04-12T12:17:15.332Z,2.60
2023-04-12T12:20:04.947Z,2.42
2023-04-12T12:22:52.081Z,1.90
2023-04-12T12:25:39.068Z,1.90
2023-04-12T12:28:27.248Z,1.60
2023-04-12T12:31:15.892Z,1.53
2023-04-12T12:34:07.502Z,1.33
2023-04-12T12:36:57.485Z,1.40
2023-04-12T12:40:13.637Z,1.60
2023-04-12T12:43:01.930Z,1.30
2023-04-12T12:45:49.662Z,1.40
2023-04-12T12:48:41.071Z,1.40
2023-04-12T12:51:29.732Z,1.52
2023-04-12T12:54:36.065Z,1.90
2023-04-12T12:57:26.817Z,1.63
2023-04-12T13:00:16.423Z,1.83
2023-04-12T13:03:04.738Z,1.77
2023-04-12T13:05:52.674Z,1.43
2023-04-12T13:08:41.671Z,1.27
2023-04-12T13:11:29.765Z,1.55
2023-04-12T13:14:17.098Z,1.27
2023-04-12T13:17:03.900Z,1.33
2023-04-12T13:19:51.893Z,1.20
2023-04-12T13:22:40.491Z,1.20
2023-04-12T13:25:29.765Z,1.30
2023-04-12T13:28:18.015Z,1.27
2023-04-12T13:31:06.259Z,1.30
2023-04-12T13:33:53.610Z,1.17
2023-04-12T13:36:41.312Z,1.38
2023-04-12T13:39:29.551Z,1.30
2023-04-12T13:42:20.445Z,1.15
2023-04-12T13:45:11.289Z,1.20
2023-04-12T13:47:58.793Z,1.10
2023-04-12T13:50:47.307Z,1.20
2023-04-12T13:53:37.040Z,1.13
2023-04-12T13:56:24.781Z,1.20
2023-04-12T13:59:13.558Z,1.38
2023-04-12T14:02:02.991Z,1.25
2023-04-12T14:04:55.367Z,1.23
2023-04-12T14:07:43.354Z,1.23
2023-04-12T14:10:30.930Z,1.40
2023-04-12T14:13:18.143Z,1.40
2023-04-12T14:16:08.528Z,1.45
2023-04-12T14:18:56.143Z,1.37
2023-04-12T14:21:43.996Z,1.30
2023-04-12T14:24:31.398Z,1.47
2023-04-12T14:27:18.958Z,1.10
2023-04-12T14:30:08.539Z,1.40
2023-04-12T14:32:57.738Z,1.25
2023-04-12T14:35:45.738Z,1.40
2023-04-12T14:38:33.562Z,1.10
2023-04-12T14:41:21.307Z,1.10
2023-04-12T14:44:09.250Z,1.10
2023-04-12T14:46:56.285Z,1.20
2023-04-12T14:49:45.267Z,1.20
2023-04-12T14:52:32.448Z,1.25
2023-04-12T14:55:20.807Z,1.23
2023-04-12T14:58:08.533Z,1.38
2023-04-12T15:00:55.452Z,1.30
2023-04-12T15:03:44.346Z,1.40
2023-04-12T15:06:35.220Z,1.58
2023-04-12T15:09:23.367Z,1.50
2023-04-12T15:12:10.887Z,1.70
2023-04-12T15:14:58.825Z,1.70
2023-04-12T15:17:48.108Z,1.38
2023-04-12T15:20:36.121Z,1.70
2023-04-12T15:23:25.712Z,1.67
2023-04-12T15:26:14.286Z,1.70
2023-04-12T15:29:01.608Z,1.70
2023-04-12T15:31:49.069Z,1.50
2023-04-12T15:34:37.112Z,1.73
2023-04-12T15:37:24.517Z,1.63
2023-04-12T15:40:15.823Z,1.67
2023-04-12T15:43:03.685Z,1.90
2023-04-12T15:45:53.270Z,1.92
2023-04-12T15:48:41.669Z,1.70
2023-04-12T15:51:29.907Z,1.77
2023-04-12T15:54:17.540Z,1.80
2023-04-12T15:57:11.573Z,1.77
2023-04-12T15:59:59.596Z,1.63
2023-04-12T16:02:50.079Z,1.90
2023-04-12T16:05:38.110Z,1.60
2023-04-12T16:08:27.496Z,1.63
2023-04-12T16:11:15.235Z,1.88
2023-04-12T16:14:04.009Z,1.75
2023-04-12T16:16:51.603Z,1.92
2023-04-12T16:19:39.561Z,1.98
2023-04-12T16:22:27.835Z,1.90
2023-04-12T16:25:16.778Z,1.90
2023-04-12T16:28:05.521Z,2.10
2023-04-12T16:30:54.396Z,1.88
2023-04-12T16:33:43.930Z,2.10
2023-04-12T16:36:32.906Z,1.63
2023-04-12T16:39:20.353Z,1.83
2023-04-12T16:42:08.184Z,1.80
2023-04-12T16:44:56.316Z,1.60
2023-04-12T16:47:47.897Z,1.50
2023-04-12T16:50:35.969Z,1.50
2023-04-12T16:53:23.209Z,1.70
2023-04-12T16:56:10.321Z,1.65
2023-04-12T16:58:59.136Z,1.50
2023-04-12T17:01:47.256Z,1.42
2023-04-12T17:04:36.542Z,1.60
2023-04-12T17:07:24.547Z,1.48
2023-04-12T17:10:12.371Z,1.50
2023-04-12T17:13:00.121Z,1.53
2023-04-12T17:15:48.476Z,1.50
2023-04-12T17:18:37.028Z,1.60
2023-04-12T17:21:26.819Z,1.70
2023-04-12T17:24:15.455Z,1.35
2023-04-12T17:27:04.096Z,1.38
2023-04-12T17:29:51.689Z,1.35
2023-04-12T17:32:40.179Z,1.40
2023-04-12T17:35:28.114Z,1.30
2023-04-12T17:38:16.549Z,1.38
2023-04-12T17:41:04.529Z,1.10
2023-04-12T17:43:51.848Z,1.40
2023-04-12T17:46:39.464Z,1.10
2023-04-12T17:49:27.050Z,1.07
2023-04-12T17:52:18.413Z,1.10
2023-04-12T17:55:09.341Z,1.30
2023-04-12T17:57:58.270Z,1.30
2023-04-12T18:00:46.548Z,1.20
2023-04-12T18:03:34.387Z,1.40
2023-04-12T18:06:23.234Z,1.42
2023-04-12T18:09:11.570Z,1.30
2023-04-12T18:12:00.879Z,1.30
2023-04-12T18:14:48.742Z,1.50
2023-04-12T18:17:36.563Z,1.40
2023-04-12T18:20:24.352Z,1.52
2023-04-12T18:23:12.299Z,1.60
2023-04-12T18:25:59.484Z,1.45
2023-04-12T18:28:48.882Z,1.40
2023-04-12T18:31:39.407Z,1.50
2023-04-12T18:34:27.635Z,1.38
2023-04-12T18:37:15.571Z,1.60
2023-04-12T18:40:05.343Z,1.30
2023-04-12T18:42:52.899Z,1.42
2023-04-12T18:45:42.557Z,1.30
2023-04-12T18:48:31.541Z,1.52
2023-04-12T18:51:19.970Z,1.30
2023-04-12T18:54:09.985Z,1.70
2023-04-12T18:57:01.785Z,1.58
2023-04-12T18:59:49.158Z,1.67
2023-04-12T19:02:38.513Z,1.58
2023-04-12T19:05:26.356Z,1.80
2023-04-12T19:08:13.952Z,1.90
2023-04-12T19:11:01.892Z,1.90
2023-04-12T19:13:49.735Z,1.98
2023-04-12T19:16:37.795Z,1.75
2023-04-12T19:19:26.216Z,1.85
2023-04-12T19:22:13.945Z,1.90
2023-04-12T19:25:02.514Z,1.90
2023-04-12T19:27:50.055Z,1.88
2023-04-12T19:30:37.762Z,1.90
2023-04-12T19:33:25.828Z,2.00
2023-04-12T19:36:15.433Z,1.80
2023-04-12T19:39:02.803Z,1.80
2023-04-12T19:41:51.769Z,1.83
2023-04-12T19:44:40.843Z,1.55
2023-04-12T19:47:29.137Z,1.80
2023-04-12T19:50:17.844Z,1.70
2023-04-12T19:53:07.937Z,1.75
2023-04-12T19:55:58.322Z,1.90
2023-04-12T19:58:45.957Z,1.60
2023-04-12T20:01:34.048Z,1.63
2023-04-12T20:04:24.305Z,1.80
2023-04-12T20:07:11.627Z,1.70
2023-04-12T20:10:01.178Z,1.80
2023-04-12T20:12:49.034Z,1.80
2023-04-12T20:15:37.418Z,1.80
2023-04-12T20:18:26.337Z,1.83
2023-04-12T20:21:13.252Z,2.00
2023-04-12T20:24:02.016Z,2.08
2023-04-12T20:26:51.587Z,1.85
2023-04-12T20:29:39.628Z,1.70
2023-04-12T20:32:27.535Z,1.45
2023-04-12T20:35:15.411Z,1.60
2023-04-12T20:38:02.833Z,1.65
2023-04-12T20:40:51.390Z,1.70
2023-04-12T20:43:46.084Z,1.60
2023-04-12T20:46:36.743Z,1.30
2023-04-12T20:49:27.934Z,1.48
2023-04-12T20:52:18.765Z,1.60
2023-04-12T20:55:07.458Z,1.27
2023-04-12T20:57:55.992Z,1.30
2023-04-12T21:00:46.831Z,1.13
2023-04-12T21:03:35.718Z,1.30
2023-04-12T21:06:23.411Z,1.30
2023-04-12T21:09:11.070Z,1.40
2023-04-12T21:12:02.678Z,1.30
2023-04-12T21:14:51.139Z,1.13
2023-04-12T21:17:40.882Z,1.40
2023-04-12T21:20:30.600Z,1.40
2023-04-12T21:23:19.238Z,1.20
2023-04-12T21:26:07.281Z,1.30
2023-04-12T21:28:54.905Z,1.30
2023-04-12T21:31:42.860Z,1.40
2023-04-12T21:34:32.738Z,1.40
2023-04-12T21:37:22.207Z,1.48
2023-04-12T21:40:10.992Z,1.50
2023-04-12T21:42:58.703Z,1.60
2023-04-12T21:45:46.345Z,1.50
2023-04-12T21:48:33.966Z,1.70
2023-04-12T21:51:24.818Z,1.50
2023-04-12T21:54:12.306Z,1.50
2023-04-12T21:57:00.105Z,1.50
2023-04-12T21:59:47.777Z,1.20
2023-04-12T22:02:35.476Z,1.50
2023-04-12T22:05:23.572Z,1.50
2023-04-12T22:08:12.603Z,1.40
2023-04-12T22:11:00.606Z,1.63
2023-04-12T22:13:48.191Z,1.63
2023-04-12T22:16:35.956Z,1.60
2023-04-12T22:19:23.475Z,1.80
2023-04-12T22:22:11.541Z,1.42
2023-04-12T22:25:00.878Z,1.75
2023-04-12T22:27:48.786Z,1.60
2023-04-12T22:30:37.080Z,1.70
2023-04-12T22:33:24.561Z,1.70
2023-04-12T22:36:14.142Z,1.50
2023-04-12T22:39:01.588Z,1.80
2023-04-12T22:41:53.196Z,1.70
2023-04-12T22:44:40.727Z,1.73
2023-04-12T22:47:28.305Z,1.60
2023-04-12T22:50:15.820Z,1.70
2023-04-12T22:53:03.110Z,1.60
2023-04-12T22:55:53.920Z,1.80
2023-04-12T22:58:43.192Z,1.80
2023-04-12T23:01:31.260Z,1.70
2023-04-12T23:04:19.390Z,1.67
2023-04-12T23:07:07.749Z,1.60
2023-04-12T23:09:56.165Z,1.70
2023-04-12T23:12:43.487Z,1.58
2023-04-12T23:15:32.448Z,1.70
2023-04-12T23:18:19.975Z,1.45
2023-04-12T23:21:07.606Z,1.80
2023-04-12T23:23:56.421Z,1.75
2023-04-12T23:26:45.306Z,1.50
2023-04-12T23:29:35.159Z,1.70
2023-04-12T23:32:24.413Z,1.70
2023-04-12T23:35:14.711Z,1.90
2023-04-12T23:38:02.885Z,1.90
2023-04-12T23:40:53.912Z,1.90
2023-04-12T23:43:41.993Z,1.88
2023-04-12T23:46:29.332Z,1.88
2023-04-12T23:49:18.163Z,2.30
2023-04-12T23:52:05.971Z,1.85
2023-04-12T23:54:53.728Z,2.00
2023-04-12T23:57:42.284Z,2.00
